ADDS METAR Data INFO
IDs: Format: Raw Decoded Include TAF

Data at: 0932 UTC 17 Aug 2018

KVLD 170853Z AUTO 18004KT 10SM CLR 23/22 A3016 RMK AO2 SLP218 T02280222 56013